sensor_id;sensor_type;location;lat;lon;timestamp;temperature;humidity
10231;DHT22;62604;49.432;8.680;2023-04-24T00:01:16;12.10;99.90
10231;DHT22;62604;49.432;8.680;2023-04-24T00:03:45;12.10;99.90
10231;DHT22;62604;49.432;8.680;2023-04-24T00:06:11;12.00;99.90
10231;DHT22;62604;49.432;8.680;2023-04-24T00:08:38;12.00;99.90
10231;DHT22;62604;49.432;8.680;2023-04-24T00:11:05;12.00;99.90
10231;DHT22;62604;49.432;8.680;2023-04-24T00:13:32;11.90;99.90
10231;DHT22;62604;49.432;8.680;2023-04-24T00:15:59;11.90;99.90
10231;DHT22;62604;49.432;8.680;2023-04-24T00:18:28;11.90;99.90
10231;DHT22;62604;49.432;8.680;2023-04-24T00:20:55;11.90;99.90
10231;DHT22;62604;49.432;8.680;2023-04-24T00:23:21;11.90;99.90
10231;DHT22;62604;49.432;8.680;2023-04-24T00:25:48;12.00;99.90
10231;DHT22;62604;49.432;8.680;2023-04-24T00:28:15;12.00;99.90
10231;DHT22;62604;49.432;8.680;2023-04-24T00:30:42;12.00;99.90
10231;DHT22;62604;49.432;8.680;2023-04-24T00:33:09;12.00;99.90
10231;DHT22;62604;49.432;8.680;2023-04-24T00:35:37;12.00;99.90
10231;DHT22;62604;49.432;8.680;2023-04-24T00:38:04;12.00;99.90
10231;DHT22;62604;49.432;8.680;2023-04-24T00:40:31;12.00;99.90
10231;DHT22;62604;49.432;8.680;2023-04-24T00:42:58;12.00;99.90
10231;DHT22;62604;49.432;8.680;2023-04-24T00:45:25;12.00;99.90
10231;DHT22;62604;49.432;8.680;2023-04-24T00:47:53;12.00;99.90
10231;DHT22;62604;49.432;8.680;2023-04-24T00:50:21;12.00;99.90
10231;DHT22;62604;49.432;8.680;2023-04-24T00:52:49;12.00;99.90
10231;DHT22;62604;49.432;8.680;2023-04-24T00:55:17;12.00;99.90
10231;DHT22;62604;49.432;8.680;2023-04-24T00:57:44;12.00;99.90
10231;DHT22;62604;49.432;8.680;2023-04-24T01:00:12;12.10;99.90
10231;DHT22;62604;49.432;8.680;2023-04-24T01:02:41;12.10;99.90
10231;DHT22;62604;49.432;8.680;2023-04-24T01:05:11;12.10;99.90
10231;DHT22;62604;49.432;8.680;2023-04-24T01:07:39;12.10;99.90
10231;DHT22;62604;49.432;8.680;2023-04-24T01:10:11;12.00;99.90
10231;DHT22;62604;49.432;8.680;2023-04-24T01:12:39;12.00;99.90
10231;DHT22;62604;49.432;8.680;2023-04-24T01:15:07;12.00;99.90
10231;DHT22;62604;49.432;8.680;2023-04-24T01:17:35;12.00;99.90
10231;DHT22;62604;49.432;8.680;2023-04-24T01:20:02;12.00;99.90
10231;DHT22;62604;49.432;8.680;2023-04-24T01:22:33;12.00;99.90
10231;DHT22;62604;49.432;8.680;2023-04-24T01:25:01;12.00;99.90
10231;DHT22;62604;49.432;8.680;2023-04-24T01:27:28;12.00;99.90
10231;DHT22;62604;49.432;8.680;2023-04-24T01:29:55;12.00;99.90
10231;DHT22;62604;49.432;8.680;2023-04-24T01:32:22;12.00;99.90
10231;DHT22;62604;49.432;8.680;2023-04-24T01:34:50;12.00;99.90
10231;DHT22;62604;49.432;8.680;2023-04-24T01:37:17;12.00;99.90
10231;DHT22;62604;49.432;8.680;2023-04-24T01:39:46;12.00;99.90
10231;DHT22;62604;49.432;8.680;2023-04-24T01:42:13;12.00;99.90
10231;DHT22;62604;49.432;8.680;2023-04-24T01:44:40;12.00;99.90
10231;DHT22;62604;49.432;8.680;2023-04-24T01:47:08;12.00;99.90
10231;DHT22;62604;49.432;8.680;2023-04-24T01:49:36;12.00;99.90
10231;DHT22;62604;49.432;8.680;2023-04-24T01:52:04;12.00;99.90
10231;DHT22;62604;49.432;8.680;2023-04-24T01:54:31;12.00;99.90
10231;DHT22;62604;49.432;8.680;2023-04-24T01:56:59;12.00;99.90
10231;DHT22;62604;49.432;8.680;2023-04-24T01:59:28;12.00;99.90
10231;DHT22;62604;49.432;8.680;2023-04-24T02:01:55;12.00;99.90
10231;DHT22;62604;49.432;8.680;2023-04-24T02:04:22;12.00;99.90
10231;DHT22;62604;49.432;8.680;2023-04-24T02:06:49;12.00;99.90
10231;DHT22;62604;49.432;8.680;2023-04-24T02:09:16;12.00;99.90
10231;DHT22;62604;49.432;8.680;2023-04-24T02:11:43;12.00;99.90
10231;DHT22;62604;49.432;8.680;2023-04-24T02:14:11;12.00;99.90
10231;DHT22;62604;49.432;8.680;2023-04-24T02:16:38;12.00;99.90
10231;DHT22;62604;49.432;8.680;2023-04-24T02:19:05;12.00;99.90
10231;DHT22;62604;49.432;8.680;2023-04-24T02:21:32;12.00;99.90
10231;DHT22;62604;49.432;8.680;2023-04-24T02:23:59;12.00;99.90
10231;DHT22;62604;49.432;8.680;2023-04-24T02:26:26;11.90;99.90
10231;DHT22;62604;49.432;8.680;2023-04-24T02:28:52;11.90;99.90
10231;DHT22;62604;49.432;8.680;2023-04-24T02:31:21;11.90;99.90
10231;DHT22;62604;49.432;8.680;2023-04-24T02:33:48;11.90;99.90
10231;DHT22;62604;49.432;8.680;2023-04-24T02:36:14;11.90;99.90
10231;DHT22;62604;49.432;8.680;2023-04-24T02:38:41;11.90;99.90
10231;DHT22;62604;49.432;8.680;2023-04-24T02:41:08;11.90;99.90
10231;DHT22;62604;49.432;8.680;2023-04-24T02:43:35;11.90;99.90
10231;DHT22;62604;49.432;8.680;2023-04-24T02:46:02;11.90;99.90
10231;DHT22;62604;49.432;8.680;2023-04-24T02:48:30;11.90;99.90
10231;DHT22;62604;49.432;8.680;2023-04-24T02:50:57;11.80;99.90
10231;DHT22;62604;49.432;8.680;2023-04-24T02:53:24;11.80;99.90
10231;DHT22;62604;49.432;8.680;2023-04-24T02:55:51;11.90;99.90
10231;DHT22;62604;49.432;8.680;2023-04-24T02:58:18;11.80;99.90
10231;DHT22;62604;49.432;8.680;2023-04-24T03:00:46;11.80;99.90
10231;DHT22;62604;49.432;8.680;2023-04-24T03:03:13;11.80;99.90
10231;DHT22;62604;49.432;8.680;2023-04-24T03:05:42;11.80;99.90
10231;DHT22;62604;49.432;8.680;2023-04-24T03:08:08;11.80;99.90
10231;DHT22;62604;49.432;8.680;2023-04-24T03:10:35;11.80;99.90
10231;DHT22;62604;49.432;8.680;2023-04-24T03:13:02;11.80;99.90
10231;DHT22;62604;49.432;8.680;2023-04-24T03:15:29;11.60;99.90
10231;DHT22;62604;49.432;8.680;2023-04-24T03:17:56;11.40;99.90
10231;DHT22;62604;49.432;8.680;2023-04-24T03:20:23;11.00;99.90
10231;DHT22;62604;49.432;8.680;2023-04-24T03:22:51;10.70;99.90
10231;DHT22;62604;49.432;8.680;2023-04-24T03:25:18;10.50;99.90
10231;DHT22;62604;49.432;8.680;2023-04-24T03:27:45;10.40;99.90
10231;DHT22;62604;49.432;8.680;2023-04-24T03:30:12;10.30;99.90
10231;DHT22;62604;49.432;8.680;2023-04-24T03:32:39;10.20;99.90
10231;DHT22;62604;49.432;8.680;2023-04-24T03:35:07;10.10;99.90
10231;DHT22;62604;49.432;8.680;2023-04-24T03:37:34;10.10;99.90
10231;DHT22;62604;49.432;8.680;2023-04-24T03:40:03;10.00;99.90
10231;DHT22;62604;49.432;8.680;2023-04-24T03:42:31;10.00;99.90
10231;DHT22;62604;49.432;8.680;2023-04-24T03:44:58;9.90;99.90
10231;DHT22;62604;49.432;8.680;2023-04-24T03:47:25;9.90;99.90
10231;DHT22;62604;49.432;8.680;2023-04-24T03:49:52;9.90;99.90
10231;DHT22;62604;49.432;8.680;2023-04-24T03:52:20;9.90;99.90
10231;DHT22;62604;49.432;8.680;2023-04-24T03:54:46;9.90;99.90
10231;DHT22;62604;49.432;8.680;2023-04-24T03:57:15;9.90;99.90
10231;DHT22;62604;49.432;8.680;2023-04-24T03:59:41;9.90;99.90
10231;DHT22;62604;49.432;8.680;2023-04-24T04:02:08;9.80;99.90
10231;DHT22;62604;49.432;8.680;2023-04-24T04:04:35;9.90;99.90
10231;DHT22;62604;49.432;8.680;2023-04-24T04:07:02;9.90;99.90
10231;DHT22;62604;49.432;8.680;2023-04-24T04:09:30;9.90;99.90
10231;DHT22;62604;49.432;8.680;2023-04-24T04:11:58;9.90;99.90
10231;DHT22;62604;49.432;8.680;2023-04-24T04:14:27;9.90;99.90
10231;DHT22;62604;49.432;8.680;2023-04-24T04:16:54;9.90;99.90
10231;DHT22;62604;49.432;8.680;2023-04-24T04:19:21;9.90;99.90
10231;DHT22;62604;49.432;8.680;2023-04-24T04:21:48;9.80;99.90
10231;DHT22;62604;49.432;8.680;2023-04-24T04:24:18;9.80;99.90
10231;DHT22;62604;49.432;8.680;2023-04-24T04:26:46;9.80;99.90
10231;DHT22;62604;49.432;8.680;2023-04-24T04:29:13;9.70;99.90
10231;DHT22;62604;49.432;8.680;2023-04-24T04:31:42;9.50;99.90
10231;DHT22;62604;49.432;8.680;2023-04-24T04:34:09;9.50;99.90
10231;DHT22;62604;49.432;8.680;2023-04-24T04:36:37;9.50;99.90
10231;DHT22;62604;49.432;8.680;2023-04-24T04:39:05;9.40;99.90
10231;DHT22;62604;49.432;8.680;2023-04-24T04:41:32;9.40;99.90
10231;DHT22;62604;49.432;8.680;2023-04-24T04:44:00;9.30;99.90
10231;DHT22;62604;49.432;8.680;2023-04-24T04:46:30;9.20;99.90
10231;DHT22;62604;49.432;8.680;2023-04-24T04:49:01;9.10;99.90
10231;DHT22;62604;49.432;8.680;2023-04-24T04:51:32;9.10;99.90
10231;DHT22;62604;49.432;8.680;2023-04-24T04:54:01;9.10;99.90
10231;DHT22;62604;49.432;8.680;2023-04-24T04:56:30;9.10;99.90
10231;DHT22;62604;49.432;8.680;2023-04-24T04:58:57;9.20;99.90
10231;DHT22;62604;49.432;8.680;2023-04-24T05:01:24;9.20;99.90
10231;DHT22;62604;49.432;8.680;2023-04-24T05:03:53;9.30;99.90
10231;DHT22;62604;49.432;8.680;2023-04-24T05:06:21;9.30;99.90
10231;DHT22;62604;49.432;8.680;2023-04-24T05:08:48;9.30;99.90
10231;DHT22;62604;49.432;8.680;2023-04-24T05:11:16;9.40;99.90
10231;DHT22;62604;49.432;8.680;2023-04-24T05:13:43;9.40;99.90
10231;DHT22;62604;49.432;8.680;2023-04-24T05:16:10;9.40;99.90
10231;DHT22;62604;49.432;8.680;2023-04-24T05:18:37;9.40;99.90
10231;DHT22;62604;49.432;8.680;2023-04-24T05:21:04;9.60;99.90
10231;DHT22;62604;49.432;8.680;2023-04-24T05:23:32;9.60;99.90
10231;DHT22;62604;49.432;8.680;2023-04-24T05:25:59;9.70;99.90
10231;DHT22;62604;49.432;8.680;2023-04-24T05:28:26;9.80;99.90
10231;DHT22;62604;49.432;8.680;2023-04-24T05:30:54;9.80;99.90
10231;DHT22;62604;49.432;8.680;2023-04-24T05:33:21;9.80;99.90
10231;DHT22;62604;49.432;8.680;2023-04-24T05:35:48;9.90;99.90
10231;DHT22;62604;49.432;8.680;2023-04-24T05:38:15;9.90;99.90
10231;DHT22;62604;49.432;8.680;2023-04-24T05:40:44;10.00;99.90
10231;DHT22;62604;49.432;8.680;2023-04-24T05:43:12;10.10;99.90
10231;DHT22;62604;49.432;8.680;2023-04-24T05:45:39;10.10;99.90
10231;DHT22;62604;49.432;8.680;2023-04-24T05:48:06;10.20;99.90
10231;DHT22;62604;49.432;8.680;2023-04-24T05:50:34;10.20;99.90
10231;DHT22;62604;49.432;8.680;2023-04-24T05:53:01;10.30;99.90
10231;DHT22;62604;49.432;8.680;2023-04-24T05:55:28;10.40;99.90
10231;DHT22;62604;49.432;8.680;2023-04-24T05:57:56;10.50;99.90
10231;DHT22;62604;49.432;8.680;2023-04-24T06:00:24;10.70;99.90
10231;DHT22;62604;49.432;8.680;2023-04-24T06:02:51;10.90;99.90
10231;DHT22;62604;49.432;8.680;2023-04-24T06:05:20;11.00;99.90
10231;DHT22;62604;49.432;8.680;2023-04-24T06:07:47;10.90;99.90
10231;DHT22;62604;49.432;8.680;2023-04-24T06:10:14;10.80;99.90
10231;DHT22;62604;49.432;8.680;2023-04-24T06:12:41;10.60;99.90
10231;DHT22;62604;49.432;8.680;2023-04-24T06:15:10;10.50;99.90
10231;DHT22;62604;49.432;8.680;2023-04-24T06:17:37;10.60;99.90
10231;DHT22;62604;49.432;8.680;2023-04-24T06:20:05;10.60;99.90
10231;DHT22;62604;49.432;8.680;2023-04-24T06:22:33;10.60;99.90
10231;DHT22;62604;49.432;8.680;2023-04-24T06:25:01;10.50;99.90
10231;DHT22;62604;49.432;8.680;2023-04-24T06:27:28;10.40;99.90
10231;DHT22;62604;49.432;8.680;2023-04-24T06:29:55;10.30;99.90
10231;DHT22;62604;49.432;8.680;2023-04-24T06:32:24;10.40;99.90
10231;DHT22;62604;49.432;8.680;2023-04-24T06:34:52;10.50;99.90
10231;DHT22;62604;49.432;8.680;2023-04-24T06:37:20;10.50;99.90
10231;DHT22;62604;49.432;8.680;2023-04-24T06:39:47;10.60;99.90
10231;DHT22;62604;49.432;8.680;2023-04-24T06:42:13;10.60;99.90
10231;DHT22;62604;49.432;8.680;2023-04-24T06:44:40;10.60;99.90
10231;DHT22;62604;49.432;8.680;2023-04-24T06:47:08;10.50;99.90
10231;DHT22;62604;49.432;8.680;2023-04-24T06:49:37;10.50;99.90
10231;DHT22;62604;49.432;8.680;2023-04-24T06:52:04;10.50;99.90
10231;DHT22;62604;49.432;8.680;2023-04-24T06:54:31;10.50;99.90
10231;DHT22;62604;49.432;8.680;2023-04-24T06:56:58;10.70;99.90
10231;DHT22;62604;49.432;8.680;2023-04-24T06:59:26;10.70;99.90
10231;DHT22;62604;49.432;8.680;2023-04-24T07:01:54;10.70;99.90
10231;DHT22;62604;49.432;8.680;2023-04-24T07:04:21;10.70;99.90
10231;DHT22;62604;49.432;8.680;2023-04-24T07:06:49;10.60;99.90
10231;DHT22;62604;49.432;8.680;2023-04-24T07:09:16;10.50;99.90
10231;DHT22;62604;49.432;8.680;2023-04-24T07:11:44;10.20;99.90
10231;DHT22;62604;49.432;8.680;2023-04-24T07:14:16;10.00;99.90
10231;DHT22;62604;49.432;8.680;2023-04-24T07:16:45;9.80;99.90
10231;DHT22;62604;49.432;8.680;2023-04-24T07:19:14;9.80;99.90
10231;DHT22;62604;49.432;8.680;2023-04-24T07:21:45;9.80;99.90
10231;DHT22;62604;49.432;8.680;2023-04-24T07:24:25;9.80;99.90
10231;DHT22;62604;49.432;8.680;2023-04-24T07:27:03;9.90;99.90
10231;DHT22;62604;49.432;8.680;2023-04-24T07:29:37;9.90;99.90
10231;DHT22;62604;49.432;8.680;2023-04-24T07:32:18;9.80;99.90
10231;DHT22;62604;49.432;8.680;2023-04-24T07:34:45;9.80;99.90
10231;DHT22;62604;49.432;8.680;2023-04-24T07:37:12;9.90;99.90
10231;DHT22;62604;49.432;8.680;2023-04-24T07:39:40;10.00;99.90
10231;DHT22;62604;49.432;8.680;2023-04-24T07:42:07;10.10;99.90
